• Join FlightAware (Why Join?)
  • Login
  • US Flag 
02:01AM EST


 

Airport Tracker/Info


-or-


 

Live Flight TrackerFlight Track Log ✈ FLG4223 ✈ 15-May-2013 ✈ KGRB - KDTW

Flight Track Log - Related Links

Times and Time Zones

All times are in EDT time to prevent confusion due to time zone crossing. See the FLG4223 flight status page for this flight to view local times or setup timezone preferences in your user account.

Time Position Orientation Groundspeed Altitude Reporting Facility
EDT Latitude Longitude Course Direction KTS MPH feet Rate Location/Type
10:45AM 44.4169 -88.0592 101° East 249 287 5,200  Level Chicago Center
10:46AM 44.3751 -87.8363 121° Southeast  Level FlightAware Approximate
10:46AM 44.4003 -87.9486 102° East 277 319 8,200  Level Chicago Center
10:47AM 44.3168 -87.7251 127° Southeast  Level FlightAware Approximate
10:47AM 44.3689 -87.8314 110° East 322 371 10,300  Level Chicago Center
10:48AM 44.2575 -87.6149 125° Southeast  Level FlightAware Approximate
10:48AM 44.3111 -87.7183 126° Southeast 355 409 11,300  Level Chicago Center
10:49AM 44.2013 -87.5064 129° Southeast  Level FlightAware Approximate
10:49AM 44.2425 -87.5894 127° Southeast 405 466 12,300  Level Chicago Center
10:50AM 44.1592 -87.4297 126° Southeast 434 499 13,500 1,020 Climbing Chicago Center
10:51AM 44.0864 -87.2911 126° Southeast 451 519 14,500 900 Climbing Chicago Center
10:52AM 44.0117 -87.1494 126° Southeast 454 522 15,500 840 Climbing Minneapolis Center
10:53AM 43.9350 -87.0069 127° Southeast 459 528 16,400 780 Climbing Minneapolis Center
10:54AM 43.8428 -86.8300 126° Southeast 471 542 17,300 600 Climbing Minneapolis Center
10:55AM 43.7475 -86.6544 127° Southeast 477 549 17,900 480 Climbing Minneapolis Center
10:56AM 43.6661 -86.5047 127° Southeast 484 557 18,500 600 Climbing Minneapolis Center
10:57AM 43.5681 -86.3225 127° Southeast 492 566 19,300 780 Climbing Minneapolis Center
10:58AM 43.5197 -86.2328 127° Southeast 490 564 19,800 600 Climbing Chicago Center
10:59AM 43.4383 -86.0828 127° Southeast 489 563 20,300 480 Climbing Chicago Center
11:00AM 43.3736 -85.9150 118° Southeast 504 580 20,800 480 Climbing Chicago Center
11:01AM 43.3403 -85.7283 104° East 499 574 21,300 480 Climbing Chicago Center
11:02AM 43.3064 -85.5436 104° East 495 570 21,900 540 Climbing Chicago Center
11:03AM 43.2678 -85.3211 103° East 498 573 22,500 480 Climbing Chicago Center
11:04AM 43.2503 -85.2356 106° East 485 558 22,700 300 Climbing Cleveland Center
11:05AM 43.2158 -85.0478 104° East 490 564 23,000 120 Climbing Cleveland Center
11:06AM 43.1814 -84.8600 104° East 502 578 23,000 -300 Level Cleveland Center
11:07AM 43.1444 -84.6725 105° East 507 583 22,500 -780 Descending Cleveland Center
11:08AM 43.1089 -84.4908 105° East 507 583 21,500 -1,020 Descending Cleveland Center
11:08AM 43.0933 -84.3881 102° East 500 575 20,800 -1,020 Descending Chicago Center
11:09AM 43.0747 -84.3239 112° Southeast 501 577 20,500 -1,500 Descending Cleveland Center
11:10AM 43.0408 -84.1428 104° East 501 577 18,900 -2,400 Descending Cleveland Center
11:11AM 43.0086 -83.9678 104° East 494 568 15,700 -3,480 Descending Cleveland Center
11:11AM 42.9883 -83.8758 107° East 463 533 14,000 -2,400 Descending Cleveland Center
11:12AM 42.9661 -83.7781 107° East 486 559 13,300 -1,980 Descending Cleveland Center
11:12AM 42.8975 -83.7717 176° South 393 452 12,000 -1,320 Descending Cleveland Center
11:13AM 42.8544 -83.7497 160° South 397 457 12,000 60 Level Cleveland Center
11:13AM 42.8031 -83.7189 156° South 324 373 12,100 -120 Climbing Cleveland Center
11:14AM 42.7703 -83.6972 154° Southeast 365 420 11,900 -900 Descending Cleveland Center
11:14AM 42.7128 -83.6661 158° South 334 384 11,200 -1,020 Descending Cleveland Center
11:15AM 42.6906 -83.6397 139° Southeast 340 391 10,900 -1,140 Descending Cleveland Center
11:15AM 42.6589 -83.5789 125° Southeast 352 405 10,200 -1,200 Descending Cleveland Center
11:16AM 42.6331 -83.5325 127° Southeast 340 391 9,700 -1,200 Descending Cleveland Center
11:16AM 42.6011 -83.4717 125° Southeast 351 404 9,000 -1,440 Descending Cleveland Center
11:17AM 42.5750 -83.4283 129° Southeast 340 391 8,300 -1,740 Descending Cleveland Center
11:17AM 42.5392 -83.3647 127° Southeast 331 381 7,300 -1,620 Descending Cleveland Center
11:18AM 42.5211 -83.3300 125° Southeast 340 391 6,700 -1,680 Descending Cleveland Center
11:18AM 42.4806 -83.2803 138° Southeast 290 334 5,600 -1,620 Descending Cleveland Center
11:19AM 42.4536 -83.2764 174° South 296 341 5,100 -1,200 Descending Cleveland Center
11:19AM 42.4058 -83.2772 181° South 262 302 4,400 -1,320 Descending Cleveland Center